Time,TemperatureF,DewpointF,PressureIn,WindDirection,WindDirectionDegrees,WindSpeedMPH,WindSpeedGustMPH,Humidity,HourlyPrecipIn,Conditions,Clouds,dailyrainin,SoftwareType,DateUTC
2013-05-14 00:08:00,70.7,47.0,30.07,SSW,198,2.0,5.0,43,0.00,,,0.00,weatherlink.com 1.10,2013-05-14 05:08:00,
2013-05-14 00:23:00,70.7,47.0,30.07,SW,217,5.0,8.0,43,0.00,,,0.00,weatherlink.com 1.10,2013-05-14 05:23:00,
2013-05-14 00:38:00,70.7,47.0,30.07,South,175,1.0,7.0,43,0.00,,,0.00,weatherlink.com 1.10,2013-05-14 05:38:00,
2013-05-14 00:53:00,70.4,47.0,30.07,SSE,148,2.0,8.0,43,0.00,,,0.00,weatherlink.com 1.10,2013-05-14 05:53:00,
2013-05-14 01:08:00,70.2,47.0,30.07,SW,217,4.0,7.0,44,0.00,,,0.00,weatherlink.com 1.10,2013-05-14 06:08:00,
2013-05-14 01:23:00,70.0,47.0,30.06,South,181,4.0,7.0,44,0.00,,,0.00,weatherlink.com 1.10,2013-05-14 06:23:00,
2013-05-14 01:38:00,69.4,47.0,30.06,SW,224,4.0,6.0,45,0.00,,,0.00,weatherlink.com 1.10,2013-05-14 06:38:00,
2013-05-14 01:54:00,68.9,47.0,30.06,SSW,194,2.0,4.0,46,0.00,,,0.00,weatherlink.com 1.10,2013-05-14 06:54:00,
2013-05-14 02:09:00,68.3,47.0,30.05,SSW,207,2.0,4.0,47,0.00,,,0.00,weatherlink.com 1.10,2013-05-14 07:09:00,
2013-05-14 02:24:00,67.8,48.0,30.05,SW,222,2.0,4.0,49,0.00,,,0.00,weatherlink.com 1.10,2013-05-14 07:24:00,
2013-05-14 02:39:00,68.4,48.0,30.05,SE,143,3.0,7.0,49,0.00,,,0.00,weatherlink.com 1.10,2013-05-14 07:39:00,
2013-05-14 02:54:00,69.1,49.0,30.05,WSW,239,9.0,9.0,49,0.00,,,0.00,weatherlink.com 1.10,2013-05-14 07:54:00,
2013-05-14 03:09:00,69.3,49.0,30.04,South,169,2.0,7.0,49,0.00,,,0.00,weatherlink.com 1.10,2013-05-14 08:09:00,
2013-05-14 03:24:00,68.8,49.0,30.04,SW,225,2.0,5.0,50,0.00,,,0.00,weatherlink.com 1.10,2013-05-14 08:24:00,
2013-05-14 03:39:00,67.9,49.0,30.05,SSW,197,2.0,4.0,51,0.00,,,0.00,weatherlink.com 1.10,2013-05-14 08:39:00,
2013-05-14 03:54:00,67.5,49.0,30.05,South,177,5.0,6.0,52,0.00,,,0.00,weatherlink.com 1.10,2013-05-14 08:54:00,
2013-05-14 04:09:00,68.1,50.0,30.05,SSE,162,4.0,11.0,52,0.00,,,0.00,weatherlink.com 1.10,2013-05-14 09:09:00,
2013-05-14 04:24:00,68.2,50.0,30.05,SW,224,4.0,7.0,52,0.00,,,0.00,weatherlink.com 1.10,2013-05-14 09:24:00,
2013-05-14 04:39:00,67.6,50.0,30.05,SW,219,2.0,6.0,53,0.00,,,0.00,weatherlink.com 1.10,2013-05-14 09:39:00,
2013-05-14 04:54:00,66.7,49.0,30.05,SW,219,0.0,3.0,54,0.00,,,0.00,weatherlink.com 1.10,2013-05-14 09:54:00,
2013-05-14 05:09:00,65.9,50.0,30.05,South,180,0.0,4.0,56,0.00,,,0.00,weatherlink.com 1.10,2013-05-14 10:09:00,
2013-05-14 05:24:00,65.0,50.0,30.05,SSW,207,0.0,3.0,58,0.00,,,0.00,weatherlink.com 1.10,2013-05-14 10:24:00,
2013-05-14 05:40:00,64.6,50.0,30.06,SSW,205,3.0,7.0,59,0.00,,,0.00,weatherlink.com 1.10,2013-05-14 10:40:00,
2013-05-14 05:54:00,-999.0,-99.9,30.06,North,-999,-999.0,-999.0,-999,0.00,,,0.00,weatherlink.com 1.10,2013-05-14 10:54:00,
2013-05-14 06:09:00,-999.0,-99.9,30.06,North,-999,-999.0,-999.0,-999,0.00,,,0.00,weatherlink.com 1.10,2013-05-14 11:09:00,
2013-05-14 06:24:00,-999.0,-99.9,30.06,North,-999,-999.0,-999.0,-999,0.00,,,0.00,weatherlink.com 1.10,2013-05-14 11:24:00,
2013-05-14 06:39:00,-999.0,-99.9,30.06,North,-999,-999.0,-999.0,-999,0.00,,,0.00,weatherlink.com 1.10,2013-05-14 11:39:00,
2013-05-14 06:54:00,-999.0,-99.9,30.06,North,-999,-999.0,-999.0,-999,0.00,,,0.00,weatherlink.com 1.10,2013-05-14 11:54:00,
2013-05-14 07:09:00,-999.0,-99.9,30.06,North,-999,-999.0,-999.0,-999,0.00,,,0.00,weatherlink.com 1.10,2013-05-14 12:09:00,
2013-05-14 07:24:00,62.8,52.0,30.06,SSW,200,0.0,3.0,67,0.00,,,0.00,weatherlink.com 1.10,2013-05-14 12:24:00,
2013-05-14 07:39:00,65.2,52.0,30.06,SW,226,4.0,6.0,63,0.00,,,0.00,weatherlink.com 1.10,2013-05-14 12:39:00,
2013-05-14 07:54:00,67.7,53.0,30.07,SW,232,4.0,7.0,60,0.00,,,0.00,weatherlink.com 1.10,2013-05-14 12:54:00,
2013-05-14 08:09:00,69.4,54.0,30.07,SW,218,3.0,7.0,58,0.00,,,0.00,weatherlink.com 1.10,2013-05-14 13:09:00,
2013-05-14 08:24:00,70.7,54.0,30.07,WSW,239,2.0,10.0,56,0.00,,,0.00,weatherlink.com 1.10,2013-05-14 13:24:00,
2013-05-14 08:39:00,72.1,54.0,30.07,SSE,163,7.0,11.0,54,0.00,,,0.00,weatherlink.com 1.10,2013-05-14 13:39:00,
2013-05-14 08:54:00,73.1,54.0,30.08,SSW,194,5.0,10.0,52,0.00,,,0.00,weatherlink.com 1.10,2013-05-14 13:54:00,
2013-05-14 09:09:00,73.9,55.0,30.08,WSW,248,6.0,11.0,52,0.00,,,0.00,weatherlink.com 1.10,2013-05-14 14:09:00,
2013-05-14 09:24:00,74.9,55.0,30.08,WSW,258,7.0,13.0,51,0.00,,,0.00,weatherlink.com 1.10,2013-05-14 14:24:00,
2013-05-14 09:39:00,76.2,56.0,30.08,SSW,208,7.0,13.0,50,0.00,,,0.00,weatherlink.com 1.10,2013-05-14 14:39:00,
2013-05-14 09:54:00,77.1,56.0,30.09,SW,216,8.0,11.0,49,0.00,,,0.00,weatherlink.com 1.10,2013-05-14 14:54:00,
2013-05-14 10:09:00,78.1,57.0,30.08,SW,231,6.0,12.0,48,0.00,,,0.00,weatherlink.com 1.10,2013-05-14 15:09:00,
2013-05-14 10:24:00,78.8,57.0,30.08,SSE,148,4.0,13.0,47,0.00,,,0.00,weatherlink.com 1.10,2013-05-14 15:24:00,
2013-05-14 10:39:00,80.3,58.0,30.08,SW,214,7.0,13.0,47,0.00,,,0.00,weatherlink.com 1.10,2013-05-14 15:39:00,
2013-05-14 10:54:00,81.6,58.0,30.08,SSW,193,10.0,12.0,44,0.00,,,0.00,weatherlink.com 1.10,2013-05-14 15:54:00,
2013-05-14 11:09:00,82.1,57.0,30.08,SSW,204,7.0,14.0,42,0.00,,,0.00,weatherlink.com 1.10,2013-05-14 16:09:00,
2013-05-14 11:24:00,83.0,58.0,30.08,ESE,107,3.0,12.0,42,0.00,,,0.00,weatherlink.com 1.10,2013-05-14 16:24:00,
2013-05-14 11:39:00,83.5,59.0,30.07,SSW,195,1.0,11.0,43,0.00,,,0.00,weatherlink.com 1.10,2013-05-14 16:39:00,
2013-05-14 11:54:00,85.0,57.0,30.07,SW,221,6.0,11.0,39,0.00,,,0.00,weatherlink.com 1.10,2013-05-14 16:54:00,
2013-05-14 12:09:00,85.0,57.0,30.06,SW,224,2.0,17.0,38,0.00,,,0.00,weatherlink.com 1.10,2013-05-14 17:09:00,
2013-05-14 12:24:00,86.3,58.0,30.06,SSE,167,2.0,13.0,38,0.00,,,0.00,weatherlink.com 1.10,2013-05-14 17:24:00,
2013-05-14 12:39:00,86.6,57.0,30.05,ESE,121,6.0,11.0,37,0.00,,,0.00,weatherlink.com 1.10,2013-05-14 17:39:00,
2013-05-14 12:54:00,86.8,55.0,30.04,SW,222,6.0,11.0,34,0.00,,,0.00,weatherlink.com 1.10,2013-05-14 17:54:00,
2013-05-14 13:09:00,87.8,55.0,30.03,South,187,3.0,12.0,33,0.00,,,0.00,weatherlink.com 1.10,2013-05-14 18:09:00,
2013-05-14 13:24:00,88.1,54.0,30.02,SSE,167,8.0,14.0,31,0.00,,,0.00,weatherlink.com 1.10,2013-05-14 18:24:00,
2013-05-14 13:40:00,88.4,54.0,30.01,SE,128,2.0,12.0,31,0.00,,,0.00,weatherlink.com 1.10,2013-05-14 18:40:00,
2013-05-14 13:55:00,88.8,54.0,30.00,SSE,153,2.0,11.0,30,0.00,,,0.00,weatherlink.com 1.10,2013-05-14 18:55:00,
2013-05-14 14:10:00,89.2,50.0,30.00,SE,142,8.0,14.0,26,0.00,,,0.00,weatherlink.com 1.10,2013-05-14 19:10:00,
2013-05-14 14:25:00,89.1,54.0,30.00,SE,132,4.0,13.0,30,0.00,,,0.00,weatherlink.com 1.10,2013-05-14 19:25:00,
2013-05-14 14:40:00,89.1,53.0,29.99,SSW,205,7.0,16.0,29,0.00,,,0.00,weatherlink.com 1.10,2013-05-14 19:40:00,
2013-05-14 14:55:00,88.9,52.0,29.98,SSE,158,8.0,14.0,28,0.00,,,0.00,weatherlink.com 1.10,2013-05-14 19:55:00,
2013-05-14 15:10:00,89.1,52.0,29.98,SE,134,9.0,14.0,28,0.00,,,0.00,weatherlink.com 1.10,2013-05-14 20:10:00,
2013-05-14 15:25:00,89.3,52.0,29.97,SSE,167,7.0,17.0,28,0.00,,,0.00,weatherlink.com 1.10,2013-05-14 20:25:00,
2013-05-14 15:40:00,89.0,52.0,29.97,SSW,205,3.0,16.0,28,0.00,,,0.00,weatherlink.com 1.10,2013-05-14 20:40:00,
2013-05-14 15:55:00,89.3,52.0,29.96,SSE,160,4.0,14.0,28,0.00,,,0.00,weatherlink.com 1.10,2013-05-14 20:55:00,
2013-05-14 16:10:00,88.9,55.0,29.95,SSW,212,9.0,14.0,32,0.00,,,0.00,weatherlink.com 1.10,2013-05-14 21:10:00,
2013-05-14 16:25:00,88.7,55.0,29.95,SSE,157,7.0,15.0,32,0.00,,,0.00,weatherlink.com 1.10,2013-05-14 21:25:00,
2013-05-14 16:40:00,88.7,54.0,29.95,SE,124,7.0,15.0,31,0.00,,,0.00,weatherlink.com 1.10,2013-05-14 21:40:00,
2013-05-14 16:55:00,88.5,54.0,29.95,SE,144,6.0,18.0,31,0.00,,,0.00,weatherlink.com 1.10,2013-05-14 21:55:00,
2013-05-14 17:10:00,88.2,55.0,29.94,SE,142,5.0,16.0,32,0.00,,,0.00,weatherlink.com 1.10,2013-05-14 22:10:00,
2013-05-14 17:25:00,87.5,56.0,29.93,SSW,203,4.0,16.0,34,0.00,,,0.00,weatherlink.com 1.10,2013-05-14 22:25:00,
2013-05-14 17:40:00,87.3,56.0,29.93,SSE,150,6.0,17.0,35,0.00,,,0.00,weatherlink.com 1.10,2013-05-14 22:40:00,
2013-05-14 17:55:00,87.2,57.0,29.93,SSW,207,11.0,17.0,36,0.00,,,0.00,weatherlink.com 1.10,2013-05-14 22:55:00,
2013-05-14 18:10:00,86.6,57.0,29.92,SW,236,6.0,17.0,37,0.00,,,0.00,weatherlink.com 1.10,2013-05-14 23:10:00,
2013-05-14 18:25:00,86.5,59.0,29.92,SE,145,3.0,11.0,39,0.00,,,0.00,weatherlink.com 1.10,2013-05-14 23:25:00,
2013-05-14 18:40:00,86.2,58.0,29.91,South,177,6.0,14.0,39,0.00,,,0.00,weatherlink.com 1.10,2013-05-14 23:40:00,
2013-05-14 18:55:00,85.1,58.0,29.91,SSE,161,4.0,14.0,40,0.00,,,0.00,weatherlink.com 1.10,2013-05-14 23:55:00,
2013-05-14 19:10:00,84.3,59.0,29.91,SE,142,9.0,16.0,42,0.00,,,0.00,weatherlink.com 1.10,2013-05-15 00:10:00,
2013-05-14 19:25:00,83.4,59.0,29.91,SSW,210,5.0,16.0,43,0.00,,,0.00,weatherlink.com 1.10,2013-05-15 00:25:00,
2013-05-14 19:40:00,82.2,58.0,29.92,SE,146,4.0,13.0,44,0.00,,,0.00,weatherlink.com 1.10,2013-05-15 00:40:00,
2013-05-14 19:55:00,81.1,58.0,29.92,South,172,3.0,13.0,45,0.00,,,0.00,weatherlink.com 1.10,2013-05-15 00:55:00,
2013-05-14 20:10:00,80.2,57.0,29.92,SSW,211,2.0,11.0,45,0.00,,,0.00,weatherlink.com 1.10,2013-05-15 01:10:00,
2013-05-14 20:25:00,79.4,56.0,29.92,South,178,4.0,10.0,44,0.00,,,0.00,weatherlink.com 1.10,2013-05-15 01:25:00,
2013-05-14 20:40:00,78.5,56.0,29.92,SE,135,3.0,9.0,46,0.00,,,0.00,weatherlink.com 1.10,2013-05-15 01:40:00,
2013-05-14 20:55:00,77.6,56.0,29.92,South,178,4.0,10.0,47,0.00,,,0.00,weatherlink.com 1.10,2013-05-15 01:55:00,
2013-05-14 21:10:00,76.9,54.0,29.92,South,176,2.0,11.0,46,0.00,,,0.00,weatherlink.com 1.10,2013-05-15 02:10:00,
2013-05-14 21:25:00,76.4,54.0,29.92,SE,131,7.0,13.0,46,0.00,,,0.00,weatherlink.com 1.10,2013-05-15 02:25:00,
2013-05-14 21:40:00,76.0,54.0,29.92,SSE,149,6.0,14.0,46,0.00,,,0.00,weatherlink.com 1.10,2013-05-15 02:40:00,
2013-05-14 21:55:00,75.5,54.0,29.93,East,91,4.0,10.0,47,0.00,,,0.00,weatherlink.com 1.10,2013-05-15 02:55:00,
2013-05-14 22:10:00,75.2,54.0,29.94,ESE,114,4.0,10.0,48,0.00,,,0.00,weatherlink.com 1.10,2013-05-15 03:10:00,
2013-05-14 22:25:00,74.8,54.0,29.95,SSW,208,7.0,9.0,49,0.00,,,0.00,weatherlink.com 1.10,2013-05-15 03:25:00,
2013-05-14 22:40:00,74.4,54.0,29.95,SE,136,6.0,9.0,50,0.00,,,0.00,weatherlink.com 1.10,2013-05-15 03:40:00,
2013-05-14 22:55:00,74.0,55.0,29.96,SSW,195,5.0,9.0,51,0.00,,,0.00,weatherlink.com 1.10,2013-05-15 03:55:00,
2013-05-14 23:10:00,73.7,55.0,29.96,SE,139,2.0,9.0,52,0.00,,,0.00,weatherlink.com 1.10,2013-05-15 04:10:00,
2013-05-14 23:25:00,73.6,55.0,29.96,SE,139,4.0,8.0,52,0.00,,,0.00,weatherlink.com 1.10,2013-05-15 04:25:00,
2013-05-14 23:40:00,73.6,55.0,29.96,ESE,120,3.0,13.0,53,0.00,,,0.00,weatherlink.com 1.10,2013-05-15 04:40:00,
2013-05-14 23:55:00,73.7,55.0,29.96,SSE,153,4.0,10.0,53,0.00,,,0.00,weatherlink.com 1.10,2013-05-15 04:55:00,